Decoded Metar for SARP (POSADAS in ARGENTINA) (IATA:PSS) | Meteo·Mobile Aviation Weather
aviador You're here:

SARP Decoded Metar

POSADAS in ARGENTINA
Report Time2019-02-16 01:00:00
UTC Time2019-02-16 01:44:23
Flight Rules vfr VFR
Wind160° at 08 kt
W.Decomp.*RWY 19: 7.6 kt HW 2.5 kt LCW
W.Rank160° ranks 6
Current wind is above 160° avg. (5.6)
Visibility9999 m
Phenomena:N/A
Clouds:N/A
Expected CloudBase > 1,600 ft AGL from Temp-Dew spread
CeilingNone
Temp23°C (ISA +9)
Dew Point19°C (78% RH)
QNH1010 hPa
Density Alt1,827 ft
Elevation410 ft
Report Wrong Elevation
Raw Report
SARP 160100Z 16008KT CAVOK 23/19 Q1010=

Extra information for SARP:More info

Metar Taf Metar & Taf Last 4 Metars F.Rules Stats Wind Profile Meteogram Temp Stats Airport Information Weather charts Add Link Nearby VenuesMetar ALERT Operation Metar Decoded Social comments